sensor_id;sensor_type;location;lat;lon;timestamp;pressure;altitude;pressure_sealevel;temperature;humidity
4123;BME280;2075;51.062;6.920;2022-07-18T00:01:54;92916.88;;;-144.48;48.12
4123;BME280;2075;51.062;6.920;2022-07-18T00:04:41;92957.50;;;-144.48;48.14
4123;BME280;2075;51.062;6.920;2022-07-18T00:07:26;92939.22;;;-144.48;48.48
4123;BME280;2075;51.062;6.920;2022-07-18T00:10:12;92961.56;;;-144.48;48.84
4123;BME280;2075;51.062;6.920;2022-07-18T00:12:57;92949.38;;;-144.48;49.36
4123;BME280;2075;51.062;6.920;2022-07-18T00:15:42;92912.81;;;-144.48;50.07
4123;BME280;2075;51.062;6.920;2022-07-18T00:18:28;92920.94;;;-144.48;49.76
4123;BME280;2075;51.062;6.920;2022-07-18T00:21:15;92922.97;;;-144.48;50.34
4123;BME280;2075;51.062;6.920;2022-07-18T00:24:00;92951.41;;;-144.48;50.68
4123;BME280;2075;51.062;6.920;2022-07-18T00:26:45;92945.31;;;-144.48;51.56
4123;BME280;2075;51.062;6.920;2022-07-18T00:29:31;92994.06;;;-144.48;52.63
4123;BME280;2075;51.062;6.920;2022-07-18T00:32:16;92990.00;;;-144.48;53.08
4123;BME280;2075;51.062;6.920;2022-07-18T00:35:02;92957.50;;;-144.48;53.40
4123;BME280;2075;51.062;6.920;2022-07-18T00:37:48;92961.56;;;-144.48;54.12
4123;BME280;2075;51.062;6.920;2022-07-18T00:40:34;92967.66;;;-144.48;54.59
4123;BME280;2075;51.062;6.920;2022-07-18T00:43:19;92985.94;;;-144.48;55.06
4123;BME280;2075;51.062;6.920;2022-07-18T00:46:04;92990.00;;;-144.48;55.34
4123;BME280;2075;51.062;6.920;2022-07-18T00:48:50;92975.78;;;-144.48;55.79
4123;BME280;2075;51.062;6.920;2022-07-18T00:51:36;93008.28;;;-144.48;57.56
4123;BME280;2075;51.062;6.920;2022-07-18T00:54:23;92998.13;;;-144.48;57.42
4123;BME280;2075;51.062;6.920;2022-07-18T00:57:08;93059.03;;;-144.48;57.93
4123;BME280;2075;51.062;6.920;2022-07-18T00:59:56;93020.44;;;-144.48;58.44
4123;BME280;2075;51.062;6.920;2022-07-18T01:02:59;93040.75;;;-144.48;59.64
4123;BME280;2075;51.062;6.920;2022-07-18T01:05:45;93067.16;;;-144.48;60.17
4123;BME280;2075;51.062;6.920;2022-07-18T01:08:30;93052.94;;;-144.48;60.62
4123;BME280;2075;51.062;6.920;2022-07-18T01:11:18;93085.44;;;-144.48;61.45
4123;BME280;2075;51.062;6.920;2022-07-18T01:14:04;93018.41;;;-144.48;61.99
4123;BME280;2075;51.062;6.920;2022-07-18T01:16:50;93075.28;;;-144.48;63.55
4123;BME280;2075;51.062;6.920;2022-07-18T01:19:36;93071.22;;;-144.48;63.58
4123;BME280;2075;51.062;6.920;2022-07-18T01:22:23;93054.97;;;-144.48;62.86
4123;BME280;2075;51.062;6.920;2022-07-18T01:25:08;93059.03;;;-144.48;62.43
4123;BME280;2075;51.062;6.920;2022-07-18T01:27:54;93077.31;;;-144.48;62.17
4123;BME280;2075;51.062;6.920;2022-07-18T01:30:40;93113.88;;;-144.48;61.81
4123;BME280;2075;51.062;6.920;2022-07-18T01:33:26;93105.75;;;-144.48;61.92
4123;BME280;2075;51.062;6.920;2022-07-18T01:36:11;93083.41;;;-144.48;62.10
4123;BME280;2075;51.062;6.920;2022-07-18T01:38:58;93077.31;;;-144.48;62.84
4123;BME280;2075;51.062;6.920;2022-07-18T01:41:43;93075.28;;;-144.48;63.52
4123;BME280;2075;51.062;6.920;2022-07-18T01:44:29;93087.47;;;-144.48;64.91
4123;BME280;2075;51.062;6.920;2022-07-18T01:47:15;93113.88;;;-144.48;65.41
4123;BME280;2075;51.062;6.920;2022-07-18T01:50:00;93148.41;;;-144.48;65.19
4123;BME280;2075;51.062;6.920;2022-07-18T01:52:46;93095.59;;;-144.48;63.85
4123;BME280;2075;51.062;6.920;2022-07-18T01:55:33;93144.34;;;-144.48;64.48
4123;BME280;2075;51.062;6.920;2022-07-18T01:58:18;93126.06;;;-144.48;66.58
4123;BME280;2075;51.062;6.920;2022-07-18T02:01:04;93166.69;;;-144.48;67.92
4123;BME280;2075;51.062;6.920;2022-07-18T02:03:49;93264.19;;;-144.48;68.67
4123;BME280;2075;51.062;6.920;2022-07-18T02:06:34;93168.72;;;-144.48;69.36
4123;BME280;2075;51.062;6.920;2022-07-18T02:09:20;93160.59;;;-144.48;69.05
4123;BME280;2075;51.062;6.920;2022-07-18T02:12:07;93203.25;;;-144.48;69.71
4123;BME280;2075;51.062;6.920;2022-07-18T02:14:52;93168.72;;;-144.48;69.52
4123;BME280;2075;51.062;6.920;2022-07-18T02:17:38;93164.66;;;-144.48;70.28
4123;BME280;2075;51.062;6.920;2022-07-18T02:20:23;93233.72;;;-144.48;69.65
4123;BME280;2075;51.062;6.920;2022-07-18T02:23:09;93225.59;;;-144.48;69.24
4123;BME280;2075;51.062;6.920;2022-07-18T02:25:55;93156.53;;;-144.48;69.07
4123;BME280;2075;51.062;6.920;2022-07-18T02:28:41;93207.31;;;-144.48;69.51
4123;BME280;2075;51.062;6.920;2022-07-18T02:31:27;93191.06;;;-144.48;69.46
4123;BME280;2075;51.062;6.920;2022-07-18T02:34:12;93215.44;;;-144.48;69.78
4123;BME280;2075;51.062;6.920;2022-07-18T02:36:58;93233.72;;;-144.48;70.46
4123;BME280;2075;51.062;6.920;2022-07-18T02:39:43;93207.31;;;-144.48;70.85
4123;BME280;2075;51.062;6.920;2022-07-18T02:42:29;93225.59;;;-144.48;70.57
4123;BME280;2075;51.062;6.920;2022-07-18T02:45:16;93245.91;;;-144.48;70.07
4123;BME280;2075;51.062;6.920;2022-07-18T02:48:01;93215.44;;;-144.48;69.70
4123;BME280;2075;51.062;6.920;2022-07-18T02:50:47;93258.09;;;-144.48;69.43
4123;BME280;2075;51.062;6.920;2022-07-18T02:53:32;93231.69;;;-144.48;68.50
4123;BME280;2075;51.062;6.920;2022-07-18T02:56:18;93252.00;;;-144.48;67.43
4123;BME280;2075;51.062;6.920;2022-07-18T02:59:03;93290.56;;;-144.48;68.11
4123;BME280;2075;51.062;6.920;2022-07-18T03:01:50;93270.25;;;-144.48;67.41
4123;BME280;2075;51.062;6.920;2022-07-18T03:04:36;93245.91;;;-144.48;67.31
4123;BME280;2075;51.062;6.920;2022-07-18T03:07:21;93270.25;;;-144.48;66.97
4123;BME280;2075;51.062;6.920;2022-07-18T03:10:07;93067.16;;;-144.48;67.51
4123;BME280;2075;51.062;6.920;2022-07-18T03:12:53;93247.94;;;-144.48;67.62
4123;BME280;2075;51.062;6.920;2022-07-18T03:15:38;93252.00;;;-144.48;67.09
4123;BME280;2075;51.062;6.920;2022-07-18T03:18:25;93278.38;;;-144.48;68.00
4123;BME280;2075;51.062;6.920;2022-07-18T03:21:10;93235.75;;;-144.48;68.73
4123;BME280;2075;51.062;6.920;2022-07-18T03:23:56;93272.28;;;-144.48;68.93
4123;BME280;2075;51.062;6.920;2022-07-18T03:26:42;93239.81;;;-144.48;68.65
4123;BME280;2075;51.062;6.920;2022-07-18T03:29:27;93233.72;;;-144.48;70.20
4123;BME280;2075;51.062;6.920;2022-07-18T03:32:13;93268.25;;;-144.48;69.47
4123;BME280;2075;51.062;6.920;2022-07-18T03:34:59;93197.16;;;-144.48;68.77
4123;BME280;2075;51.062;6.920;2022-07-18T03:37:45;93219.50;;;-144.48;67.44
4123;BME280;2075;51.062;6.920;2022-07-18T03:40:30;93211.38;;;-144.48;66.96
4123;BME280;2075;51.062;6.920;2022-07-18T03:43:16;93223.56;;;-144.48;65.83
4123;BME280;2075;51.062;6.920;2022-07-18T03:46:01;93213.41;;;-144.48;66.34
4123;BME280;2075;51.062;6.920;2022-07-18T03:48:46;93213.41;;;-144.48;65.99
4123;BME280;2075;51.062;6.920;2022-07-18T03:51:33;93223.56;;;-144.48;65.60
4123;BME280;2075;51.062;6.920;2022-07-18T03:54:18;93211.38;;;-144.48;64.26
4123;BME280;2075;51.062;6.920;2022-07-18T03:57:04;93174.81;;;-144.48;63.28
4123;BME280;2075;51.062;6.920;2022-07-18T03:59:49;93132.16;;;-144.48;65.35
4123;BME280;2075;51.062;6.920;2022-07-18T04:02:38;93128.09;;;-144.48;62.83
4123;BME280;2075;51.062;6.920;2022-07-18T04:05:23;93136.22;;;-144.48;62.04
4123;BME280;2075;51.062;6.920;2022-07-18T04:08:10;93182.94;;;-144.48;61.90
4123;BME280;2075;51.062;6.920;2022-07-18T04:10:55;93164.66;;;-144.48;61.47
4123;BME280;2075;51.062;6.920;2022-07-18T04:13:40;93142.31;;;-144.48;61.06
4123;BME280;2075;51.062;6.920;2022-07-18T04:16:27;93178.88;;;-144.48;61.58
4123;BME280;2075;51.062;6.920;2022-07-18T04:19:12;93138.25;;;-144.48;60.64
4123;BME280;2075;51.062;6.920;2022-07-18T04:21:57;93077.31;;;-144.48;60.85
4123;BME280;2075;51.062;6.920;2022-07-18T04:24:44;93113.88;;;-144.48;60.62
4123;BME280;2075;51.062;6.920;2022-07-18T04:27:30;93138.25;;;-144.48;59.77
4123;BME280;2075;51.062;6.920;2022-07-18T04:30:17;93132.16;;;-144.48;59.09
4123;BME280;2075;51.062;6.920;2022-07-18T04:33:04;93071.22;;;-144.48;58.22
4123;BME280;2075;51.062;6.920;2022-07-18T04:35:50;93065.13;;;-144.48;57.09
4123;BME280;2075;51.062;6.920;2022-07-18T04:38:35;93022.47;;;-144.48;56.14
4123;BME280;2075;51.062;6.920;2022-07-18T04:41:22;93030.59;;;-144.48;54.14
4123;BME280;2075;51.062;6.920;2022-07-18T04:44:08;93000.16;;;-144.48;52.33
4123;BME280;2075;51.062;6.920;2022-07-18T04:46:54;92953.44;;;-144.48;51.32
4123;BME280;2075;51.062;6.920;2022-07-18T04:49:39;92949.38;;;-144.48;49.80
4123;BME280;2075;51.062;6.920;2022-07-18T04:52:25;92933.13;;;-144.48;49.43
4123;BME280;2075;51.062;6.920;2022-07-18T04:55:12;92912.81;;;-144.48;48.48
4123;BME280;2075;51.062;6.920;2022-07-18T04:57:59;92933.13;;;-144.48;47.71
4123;BME280;2075;51.062;6.920;2022-07-18T05:00:45;92886.41;;;-144.48;46.46
4123;BME280;2075;51.062;6.920;2022-07-18T05:03:30;92855.94;;;-144.48;45.81
4123;BME280;2075;51.062;6.920;2022-07-18T05:06:16;92807.22;;;-144.48;45.05
4123;BME280;2075;51.062;6.920;2022-07-18T05:09:01;92565.56;;;-144.48;42.12
4123;BME280;2075;51.062;6.920;2022-07-18T05:11:47;91907.69;;;-144.48;35.34
4123;BME280;2075;51.062;6.920;2022-07-18T05:14:34;91351.44;;;-144.48;31.52
4123;BME280;2075;51.062;6.920;2022-07-18T05:17:19;90927.19;;;-144.48;29.10
4123;BME280;2075;51.062;6.920;2022-07-18T05:20:06;90677.56;;;-144.48;27.75
4123;BME280;2075;51.062;6.920;2022-07-18T05:22:52;90572.03;;;-144.48;27.26
4123;BME280;2075;51.062;6.920;2022-07-18T05:25:37;90553.75;;;-144.48;27.16
4123;BME280;2075;51.062;6.920;2022-07-18T05:28:22;90618.69;;;-144.48;27.02
4123;BME280;2075;51.062;6.920;2022-07-18T05:31:09;90379.22;;;-144.48;26.64
4123;BME280;2075;51.062;6.920;2022-07-18T05:33:54;90567.97;;;-144.48;26.05
4123;BME280;2075;51.062;6.920;2022-07-18T05:36:40;90533.47;;;-144.48;26.53
4123;BME280;2075;51.062;6.920;2022-07-18T05:39:25;90425.91;;;-144.48;26.20
4123;BME280;2075;51.062;6.920;2022-07-18T05:42:11;90180.34;;;-144.48;25.50
4123;BME280;2075;51.062;6.920;2022-07-18T05:44:56;89796.84;;;-144.48;24.36
4123;BME280;2075;51.062;6.920;2022-07-18T05:47:43;89581.78;;;-144.48;23.81
4123;BME280;2075;51.062;6.920;2022-07-18T05:50:28;89729.88;;;-144.48;24.08
4123;BME280;2075;51.062;6.920;2022-07-18T05:53:14;89529.03;;;-144.48;23.57
4123;BME280;2075;51.062;6.920;2022-07-18T05:55:59;89535.09;;;-144.48;23.72
4123;BME280;2075;51.062;6.920;2022-07-18T05:58:44;88863.59;;;-144.48;22.62
4123;BME280;2075;51.062;6.920;2022-07-18T06:01:30;88591.81;;;-144.48;22.15
4123;BME280;2075;51.062;6.920;2022-07-18T06:04:17;88936.63;;;-144.48;22.31
4123;BME280;2075;51.062;6.920;2022-07-18T06:07:02;88843.31;;;-144.48;21.76
4123;BME280;2075;51.062;6.920;2022-07-18T06:09:47;89072.56;;;-144.48;22.35
4123;BME280;2075;51.062;6.920;2022-07-18T06:12:33;89072.56;;;-144.48;22.60
4123;BME280;2075;51.062;6.920;2022-07-18T06:15:19;89539.16;;;-144.48;22.99
4123;BME280;2075;51.062;6.920;2022-07-18T06:18:04;89283.53;;;-144.48;23.05
4123;BME280;2075;51.062;6.920;2022-07-18T06:20:51;88904.19;;;-144.48;22.17
4123;BME280;2075;51.062;6.920;2022-07-18T06:23:37;88677.00;;;-144.48;21.85
4123;BME280;2075;51.062;6.920;2022-07-18T06:26:22;88139.50;;;-144.48;21.49
4123;BME280;2075;51.062;6.920;2022-07-18T06:29:08;87362.84;;;-144.48;20.35
4123;BME280;2075;51.062;6.920;2022-07-18T06:31:55;87904.25;;;-144.48;20.60
4123;BME280;2075;51.062;6.920;2022-07-18T06:34:40;88348.41;;;-144.48;20.83
4123;BME280;2075;51.062;6.920;2022-07-18T06:37:27;88064.47;;;-144.48;20.78
4123;BME280;2075;51.062;6.920;2022-07-18T06:40:12;87981.31;;;-144.48;20.71
4123;BME280;2075;51.062;6.920;2022-07-18T06:42:58;87671.06;;;-144.48;20.38
4123;BME280;2075;51.062;6.920;2022-07-18T06:45:43;87701.47;;;-144.48;20.29
4123;BME280;2075;51.062;6.920;2022-07-18T06:48:29;87778.53;;;-144.48;20.17
4123;BME280;2075;51.062;6.920;2022-07-18T06:51:17;86864.09;;;-144.48;19.71
4123;BME280;2075;51.062;6.920;2022-07-18T06:54:04;86910.72;;;-144.48;19.36
4123;BME280;2075;51.062;6.920;2022-07-18T06:56:50;87397.31;;;-144.48;19.86
4123;BME280;2075;51.062;6.920;2022-07-18T06:59:36;88380.88;;;-144.48;20.71
4123;BME280;2075;51.062;6.920;2022-07-18T07:02:21;88123.28;;;-144.48;20.41
4123;BME280;2075;51.062;6.920;2022-07-18T07:05:07;87468.28;;;-144.48;20.11
4123;BME280;2075;51.062;6.920;2022-07-18T07:07:53;87227.00;;;-144.48;19.73
4123;BME280;2075;51.062;6.920;2022-07-18T07:10:40;87446.00;;;-144.48;20.00
4123;BME280;2075;51.062;6.920;2022-07-18T07:13:25;87587.94;;;-144.48;19.88
4123;BME280;2075;51.062;6.920;2022-07-18T07:16:11;86519.47;;;-144.48;19.23
4123;BME280;2075;51.062;6.920;2022-07-18T07:18:56;86993.84;;;-144.48;19.34
4123;BME280;2075;51.062;6.920;2022-07-18T07:21:42;85767.50;;;-144.48;19.02
4123;BME280;2075;51.062;6.920;2022-07-18T07:24:27;86464.75;;;-144.48;19.43
4123;BME280;2075;51.062;6.920;2022-07-18T07:27:14;86541.78;;;-144.48;18.81
4123;BME280;2075;51.062;6.920;2022-07-18T07:29:59;86365.41;;;-144.48;18.98
4123;BME280;2075;51.062;6.920;2022-07-18T07:32:45;87220.94;;;-144.48;19.67
4123;BME280;2075;51.062;6.920;2022-07-18T07:35:31;86945.19;;;-144.48;19.52
4123;BME280;2075;51.062;6.920;2022-07-18T07:38:17;87713.66;;;-144.48;20.27
4123;BME280;2075;51.062;6.920;2022-07-18T07:41:03;86110.03;;;-144.48;19.05
4123;BME280;2075;51.062;6.920;2022-07-18T07:43:50;85901.25;;;-144.48;19.08
4123;BME280;2075;51.062;6.920;2022-07-18T07:46:36;84280.25;;;-144.48;18.21
4123;BME280;2075;51.062;6.920;2022-07-18T07:49:21;86290.41;;;-144.48;18.81
4123;BME280;2075;51.062;6.920;2022-07-18T07:52:07;87798.81;;;-144.48;20.44
4123;BME280;2075;51.062;6.920;2022-07-18T07:54:52;86114.06;;;-144.48;18.95
4123;BME280;2075;51.062;6.920;2022-07-18T07:57:38;86053.25;;;-144.48;19.25
4123;BME280;2075;51.062;6.920;2022-07-18T08:00:25;86189.06;;;-144.48;19.31
4123;BME280;2075;51.062;6.920;2022-07-18T08:03:11;86416.09;;;-144.48;19.10
4123;BME280;2075;51.062;6.920;2022-07-18T08:05:57;86489.06;;;-144.48;19.15
4123;BME280;2075;51.062;6.920;2022-07-18T08:08:43;85891.13;;;-144.48;18.57
4123;BME280;2075;51.062;6.920;2022-07-18T08:11:28;86215.41;;;-144.48;19.01
4123;BME280;2075;51.062;6.920;2022-07-18T08:14:14;84752.28;;;-144.48;18.58
4123;BME280;2075;51.062;6.920;2022-07-18T08:17:01;86053.25;;;-144.48;19.08
4123;BME280;2075;51.062;6.920;2022-07-18T08:19:46;86482.97;;;-144.48;19.38
4123;BME280;2075;51.062;6.920;2022-07-18T08:22:32;87368.94;;;-144.48;19.77
4123;BME280;2075;51.062;6.920;2022-07-18T08:25:20;86890.44;;;-144.48;19.80
4123;BME280;2075;51.062;6.920;2022-07-18T08:28:07;85196.03;;;-144.48;18.67
4123;BME280;2075;51.062;6.920;2022-07-18T08:30:52;86703.94;;;-144.48;19.42
4123;BME280;2075;51.062;6.920;2022-07-18T08:33:39;86726.25;;;-144.48;19.63
4123;BME280;2075;51.062;6.920;2022-07-18T08:36:25;87729.88;;;-144.48;20.33
4123;BME280;2075;51.062;6.920;2022-07-18T08:39:10;87300.00;;;-144.48;20.15
4123;BME280;2075;51.062;6.920;2022-07-18T08:42:00;86614.75;;;-144.48;19.42
4123;BME280;2075;51.062;6.920;2022-07-18T08:44:46;86182.97;;;-144.48;19.45
4123;BME280;2075;51.062;6.920;2022-07-18T08:47:35;86361.34;;;-144.48;18.93
4123;BME280;2075;51.062;6.920;2022-07-18T08:50:23;87405.44;;;-144.48;20.13
4123;BME280;2075;51.062;6.920;2022-07-18T08:53:08;86035.03;;;-144.48;19.36
4123;BME280;2075;51.062;6.920;2022-07-18T08:55:54;84809.00;;;-144.48;18.63
4123;BME280;2075;51.062;6.920;2022-07-18T08:58:40;84373.44;;;-144.48;18.30
4123;BME280;2075;51.062;6.920;2022-07-18T09:01:25;83220.91;;;-144.48;18.02
4123;BME280;2075;51.062;6.920;2022-07-18T09:04:11;85027.84;;;-144.48;18.57
4123;BME280;2075;51.062;6.920;2022-07-18T09:07:07;84397.72;;;-144.48;18.36
4123;BME280;2075;51.062;6.920;2022-07-18T09:09:54;84571.97;;;-144.48;18.41
4123;BME280;2075;51.062;6.920;2022-07-18T09:12:55;85042.03;;;-144.48;18.44
4123;BME280;2075;51.062;6.920;2022-07-18T09:15:57;86993.84;;;-144.48;19.20
4123;BME280;2075;51.062;6.920;2022-07-18T09:18:44;89003.59;;;-144.48;22.12
4123;BME280;2075;51.062;6.920;2022-07-18T09:21:36;89764.38;;;-144.48;23.53
4123;BME280;2075;51.062;6.920;2022-07-18T09:24:23;89981.50;;;-144.48;24.04
4123;BME280;2075;51.062;6.920;2022-07-18T09:27:22;90147.88;;;-144.48;24.64
4123;BME280;2075;51.062;6.920;2022-07-18T09:30:18;90220.94;;;-144.48;24.59
4123;BME280;2075;51.062;6.920;2022-07-18T09:33:06;90310.22;;;-144.48;24.95
4123;BME280;2075;51.062;6.920;2022-07-18T09:35:52;90515.19;;;-144.48;25.31
4123;BME280;2075;51.062;6.920;2022-07-18T09:38:38;90494.91;;;-144.48;25.32
4123;BME280;2075;51.062;6.920;2022-07-18T09:41:26;90444.16;;;-144.48;25.39
4123;BME280;2075;51.062;6.920;2022-07-18T09:44:14;90346.75;;;-144.48;25.36
4123;BME280;2075;51.062;6.920;2022-07-18T09:47:00;90107.28;;;-144.48;25.40
4123;BME280;2075;51.062;6.920;2022-07-18T09:49:45;90208.75;;;-144.48;24.91
4123;BME280;2075;51.062;6.920;2022-07-18T09:52:31;90225.00;;;-144.48;25.02
4123;BME280;2075;51.062;6.920;2022-07-18T09:55:16;90657.25;;;-144.48;24.38
4123;BME280;2075;51.062;6.920;2022-07-18T09:58:05;90316.31;;;-144.48;24.47
4123;BME280;2075;51.062;6.920;2022-07-18T10:00:53;90306.16;;;-144.48;24.35
4123;BME280;2075;51.062;6.920;2022-07-18T10:03:39;90231.09;;;-144.48;24.49
4123;BME280;2075;51.062;6.920;2022-07-18T10:06:25;90178.31;;;-144.48;24.16
4123;BME280;2075;51.062;6.920;2022-07-18T10:09:10;90089.03;;;-144.48;24.02
4123;BME280;2075;51.062;6.920;2022-07-18T10:11:56;90113.38;;;-144.48;23.87
4123;BME280;2075;51.062;6.920;2022-07-18T10:14:43;90216.88;;;-144.48;24.18
4123;BME280;2075;51.062;6.920;2022-07-18T10:17:29;90249.34;;;-144.48;24.44
4123;BME280;2075;51.062;6.920;2022-07-18T10:20:15;90231.09;;;-144.48;24.38
4123;BME280;2075;51.062;6.920;2022-07-18T10:23:08;90251.38;;;-144.48;24.16
4123;BME280;2075;51.062;6.920;2022-07-18T10:26:11;90058.59;;;-144.48;24.24
4123;BME280;2075;51.062;6.920;2022-07-18T10:29:15;90129.63;;;-144.48;24.36
4123;BME280;2075;51.062;6.920;2022-07-18T10:32:04;90308.19;;;-144.48;24.47
4123;BME280;2075;51.062;6.920;2022-07-18T10:34:51;90367.03;;;-144.48;24.49
4123;BME280;2075;51.062;6.920;2022-07-18T10:37:37;90294.00;;;-144.48;24.53
4123;BME280;2075;51.062;6.920;2022-07-18T10:40:24;90255.44;;;-144.48;24.21
4123;BME280;2075;51.062;6.920;2022-07-18T10:43:34;90206.72;;;-144.48;23.66
4123;BME280;2075;51.062;6.920;2022-07-18T10:46:20;90188.47;;;-144.48;24.13
4123;BME280;2075;51.062;6.920;2022-07-18T10:49:07;90237.16;;;-144.48;23.63
4123;BME280;2075;51.062;6.920;2022-07-18T10:51:55;90243.25;;;-144.48;23.75
4123;BME280;2075;51.062;6.920;2022-07-18T10:54:41;90316.31;;;-144.48;24.02
4123;BME280;2075;51.062;6.920;2022-07-18T10:57:27;90395.47;;;-144.48;24.42
4123;BME280;2075;51.062;6.920;2022-07-18T11:00:14;90342.69;;;-144.48;24.49
4123;BME280;2075;51.062;6.920;2022-07-18T11:03:04;90312.25;;;-144.48;24.39
4123;BME280;2075;51.062;6.920;2022-07-18T11:05:55;90354.88;;;-144.48;24.21
4123;BME280;2075;51.062;6.920;2022-07-18T11:08:41;90308.19;;;-144.48;24.18
4123;BME280;2075;51.062;6.920;2022-07-18T11:11:27;90253.41;;;-144.48;24.16
4123;BME280;2075;51.062;6.920;2022-07-18T11:17:54;90214.84;;;-144.48;23.87
4123;BME280;2075;51.062;6.920;2022-07-18T11:20:41;90196.59;;;-144.48;23.94
4123;BME280;2075;51.062;6.920;2022-07-18T11:23:28;90117.44;;;-144.48;24.09
4123;BME280;2075;51.062;6.920;2022-07-18T11:26:15;90074.84;;;-144.48;23.67
4123;BME280;2075;51.062;6.920;2022-07-18T11:29:02;90125.56;;;-144.48;24.15
4123;BME280;2075;51.062;6.920;2022-07-18T11:31:50;90121.50;;;-144.48;24.01
4123;BME280;2075;51.062;6.920;2022-07-18T11:34:36;90009.91;;;-144.48;23.99
4123;BME280;2075;51.062;6.920;2022-07-18T11:37:21;89930.75;;;-144.48;23.64
4123;BME280;2075;51.062;6.920;2022-07-18T11:40:09;89987.56;;;-144.48;24.01
4123;BME280;2075;51.062;6.920;2022-07-18T11:42:56;90030.19;;;-144.48;24.25
4123;BME280;2075;51.062;6.920;2022-07-18T11:45:41;90013.97;;;-144.48;24.02
4123;BME280;2075;51.062;6.920;2022-07-18T11:48:29;90044.38;;;-144.48;23.76
4123;BME280;2075;51.062;6.920;2022-07-18T11:51:16;90060.63;;;-144.48;23.76
4123;BME280;2075;51.062;6.920;2022-07-18T11:54:02;90046.41;;;-144.48;23.84
4123;BME280;2075;51.062;6.920;2022-07-18T11:56:53;90097.16;;;-144.48;23.28
4123;BME280;2075;51.062;6.920;2022-07-18T11:59:40;90099.19;;;-144.48;23.73
4123;BME280;2075;51.062;6.920;2022-07-18T12:05:52;90176.28;;;-144.48;24.22
4123;BME280;2075;51.062;6.920;2022-07-18T12:08:40;90229.06;;;-144.48;24.05
4123;BME280;2075;51.062;6.920;2022-07-18T12:11:28;90225.00;;;-144.48;23.79
4123;BME280;2075;51.062;6.920;2022-07-18T12:14:15;90220.94;;;-144.48;24.05
4123;BME280;2075;51.062;6.920;2022-07-18T12:17:01;90080.91;;;-144.48;23.81
4123;BME280;2075;51.062;6.920;2022-07-18T12:19:46;89965.25;;;-144.48;23.35
4123;BME280;2075;51.062;6.920;2022-07-18T12:22:32;89886.13;;;-144.48;23.02
4123;BME280;2075;51.062;6.920;2022-07-18T12:25:17;90024.09;;;-144.48;23.49
4123;BME280;2075;51.062;6.920;2022-07-18T12:28:12;89839.44;;;-144.48;23.26
4123;BME280;2075;51.062;6.920;2022-07-18T12:30:59;89648.72;;;-144.48;22.92
4123;BME280;2075;51.062;6.920;2022-07-18T12:34:08;89484.38;;;-144.48;22.46
4123;BME280;2075;51.062;6.920;2022-07-18T12:36:55;89370.78;;;-144.48;22.58
4123;BME280;2075;51.062;6.920;2022-07-18T12:39:42;89322.09;;;-144.48;22.64
4123;BME280;2075;51.062;6.920;2022-07-18T12:42:30;89328.16;;;-144.48;22.09
4123;BME280;2075;51.062;6.920;2022-07-18T12:45:16;89352.50;;;-144.48;22.30
4123;BME280;2075;51.062;6.920;2022-07-18T12:48:03;89470.19;;;-144.48;22.36
4123;BME280;2075;51.062;6.920;2022-07-18T12:50:55;89384.97;;;-144.48;22.07
4123;BME280;2075;51.062;6.920;2022-07-18T12:53:42;89372.78;;;-144.48;22.37
4123;BME280;2075;51.062;6.920;2022-07-18T12:56:28;89539.16;;;-144.48;22.70
4123;BME280;2075;51.062;6.920;2022-07-18T12:59:14;89423.53;;;-144.48;22.63
4123;BME280;2075;51.062;6.920;2022-07-18T13:01:59;89411.34;;;-144.48;22.65
4123;BME280;2075;51.062;6.920;2022-07-18T13:04:46;89569.59;;;-144.48;22.83
4123;BME280;2075;51.062;6.920;2022-07-18T13:07:32;89815.09;;;-144.48;22.94
4123;BME280;2075;51.062;6.920;2022-07-18T13:10:21;89713.66;;;-144.48;23.51
4123;BME280;2075;51.062;6.920;2022-07-18T13:13:08;89602.06;;;-144.48;23.05
4123;BME280;2075;51.062;6.920;2022-07-18T13:15:54;89600.03;;;-144.48;22.82
4123;BME280;2075;51.062;6.920;2022-07-18T13:18:40;89671.03;;;-144.48;23.14
4123;BME280;2075;51.062;6.920;2022-07-18T13:21:26;89628.44;;;-144.48;23.10
4123;BME280;2075;51.062;6.920;2022-07-18T13:24:13;89664.97;;;-144.48;23.23
4123;BME280;2075;51.062;6.920;2022-07-18T13:26:59;89711.63;;;-144.48;23.42
4123;BME280;2075;51.062;6.920;2022-07-18T13:29:44;89719.75;;;-144.48;23.34
4123;BME280;2075;51.062;6.920;2022-07-18T13:32:32;89719.75;;;-144.48;23.36
4123;BME280;2075;51.062;6.920;2022-07-18T13:35:18;89811.03;;;-144.48;23.50
4123;BME280;2075;51.062;6.920;2022-07-18T13:38:05;89802.94;;;-144.48;23.55
4123;BME280;2075;51.062;6.920;2022-07-18T13:40:50;89823.22;;;-144.48;23.47
4123;BME280;2075;51.062;6.920;2022-07-18T13:43:37;89839.44;;;-144.48;23.55
4123;BME280;2075;51.062;6.920;2022-07-18T13:46:24;89936.84;;;-144.48;23.23
4123;BME280;2075;51.062;6.920;2022-07-18T13:49:10;89951.06;;;-144.48;23.49
4123;BME280;2075;51.062;6.920;2022-07-18T13:51:58;89930.75;;;-144.48;23.47
4123;BME280;2075;51.062;6.920;2022-07-18T13:54:45;89896.25;;;-144.48;23.52
4123;BME280;2075;51.062;6.920;2022-07-18T13:57:32;89894.22;;;-144.48;23.81
4123;BME280;2075;51.062;6.920;2022-07-18T14:00:17;89928.72;;;-144.48;23.74
4123;BME280;2075;51.062;6.920;2022-07-18T14:03:03;89843.50;;;-144.48;23.51
4123;BME280;2075;51.062;6.920;2022-07-18T14:05:50;89780.59;;;-144.48;23.72
4123;BME280;2075;51.062;6.920;2022-07-18T14:08:38;89729.88;;;-144.48;23.21
4123;BME280;2075;51.062;6.920;2022-07-18T14:11:25;89701.47;;;-144.48;23.34
4123;BME280;2075;51.062;6.920;2022-07-18T14:14:16;89851.63;;;-144.48;23.19
4123;BME280;2075;51.062;6.920;2022-07-18T14:17:04;89904.38;;;-144.48;23.61
4123;BME280;2075;51.062;6.920;2022-07-18T14:19:49;89857.72;;;-144.48;23.23
4123;BME280;2075;51.062;6.920;2022-07-18T14:22:39;89859.75;;;-144.48;23.69
4123;BME280;2075;51.062;6.920;2022-07-18T14:25:25;89827.28;;;-144.48;23.66
4123;BME280;2075;51.062;6.920;2022-07-18T14:28:12;89774.53;;;-144.48;23.30
4123;BME280;2075;51.062;6.920;2022-07-18T14:30:57;89725.81;;;-144.48;23.40
4123;BME280;2075;51.062;6.920;2022-07-18T14:33:42;89817.13;;;-144.48;23.43
4123;BME280;2075;51.062;6.920;2022-07-18T14:36:28;89796.84;;;-144.48;23.52
4123;BME280;2075;51.062;6.920;2022-07-18T14:39:15;89843.50;;;-144.48;23.65
4123;BME280;2075;51.062;6.920;2022-07-18T14:42:00;89902.34;;;-144.48;23.52
4123;BME280;2075;51.062;6.920;2022-07-18T14:44:47;89898.28;;;-144.48;23.46
4123;BME280;2075;51.062;6.920;2022-07-18T14:47:33;89831.34;;;-144.48;23.60
4123;BME280;2075;51.062;6.920;2022-07-18T14:50:20;89809.00;;;-144.48;23.63